createdAt,value
2019-01-26T00:02:07.465Z,0.19
2019-01-26T00:04:37.930Z,0.37
2019-01-26T00:07:08.360Z,0.28
2019-01-26T00:09:38.845Z,0.29
2019-01-26T00:12:09.281Z,0.25
2019-01-26T00:14:39.718Z,0.22
2019-01-26T00:17:10.182Z,0.32
2019-01-26T00:19:40.615Z,0.24
2019-01-26T00:22:11.097Z,0.24
2019-01-26T00:24:41.532Z,0.30
2019-01-26T00:27:11.956Z,0.31
2019-01-26T00:29:42.424Z,0.37
2019-01-26T00:32:12.861Z,0.35
2019-01-26T00:34:43.358Z,0.37
2019-01-26T00:37:13.778Z,0.30
2019-01-26T00:39:45.140Z,0.38
2019-01-26T00:42:16.112Z,0.29
2019-01-26T00:44:46.546Z,0.33
2019-01-26T00:47:17.025Z,0.38
2019-01-26T00:49:47.458Z,0.40
2019-01-26T00:52:18.285Z,0.43
2019-01-26T00:54:48.749Z,0.48
2019-01-26T00:57:19.190Z,0.49
2019-01-26T00:59:50.632Z,0.43
2019-01-26T01:02:21.079Z,0.39
2019-01-26T01:04:51.720Z,0.53
2019-01-26T01:07:22.280Z,0.48
2019-01-26T01:09:53.061Z,0.47
2019-01-26T01:12:23.548Z,0.52
2019-01-26T01:14:54.037Z,0.65
2019-01-26T01:17:24.572Z,0.68
2019-01-26T01:19:55.032Z,0.73
2019-01-26T01:22:25.879Z,0.69
2019-01-26T01:24:56.359Z,0.60
2019-01-26T01:27:27.241Z,0.64
2019-01-26T01:29:57.681Z,0.59
2019-01-26T01:32:28.520Z,0.59
2019-01-26T01:34:58.952Z,0.64
2019-01-26T01:37:29.430Z,0.72
2019-01-26T01:39:59.869Z,0.68
2019-01-26T01:42:30.302Z,0.72
2019-01-26T01:45:00.765Z,0.77
2019-01-26T01:47:31.201Z,0.72
2019-01-26T01:50:01.684Z,0.75
2019-01-26T01:52:32.172Z,0.77
2019-01-26T01:55:02.660Z,0.75
2019-01-26T01:57:33.215Z,0.76
2019-01-26T02:00:04.636Z,0.81
2019-01-26T02:02:35.119Z,0.87
2019-01-26T02:05:06.674Z,0.83
2019-01-26T02:07:37.456Z,0.88
2019-01-26T02:10:09.315Z,0.94
2019-01-26T02:12:39.753Z,0.91
2019-01-26T02:15:11.368Z,0.92
2019-01-26T02:17:41.842Z,0.95
2019-01-26T02:20:14.664Z,0.96
2019-01-26T02:22:45.114Z,1.19
2019-01-26T02:25:15.541Z,1.18
2019-01-26T02:27:46.006Z,1.14
2019-01-26T02:30:22.475Z,1.11
2019-01-26T02:32:54.597Z,1.11
2019-01-26T02:35:25.406Z,1.06
2019-01-26T02:37:55.826Z,1.14
2019-01-26T02:40:26.376Z,1.24
2019-01-26T02:42:56.801Z,1.24
2019-01-26T02:45:27.271Z,1.44
2019-01-26T02:47:57.698Z,1.50
2019-01-26T02:50:28.120Z,1.45
2019-01-26T02:52:58.593Z,1.47
2019-01-26T02:55:29.015Z,1.56
2019-01-26T02:57:59.480Z,1.63
2019-01-26T03:00:29.912Z,1.73
2019-01-26T03:03:00.331Z,1.78
2019-01-26T03:05:30.784Z,1.75
2019-01-26T03:08:01.239Z,1.82
2019-01-26T03:10:31.700Z,1.86
2019-01-26T03:13:02.595Z,1.94
2019-01-26T03:15:33.095Z,1.96
2019-01-26T03:18:03.644Z,1.90
2019-01-26T03:20:34.070Z,1.95
2019-01-26T03:23:04.930Z,1.90
2019-01-26T03:25:35.531Z,1.91
2019-01-26T03:28:05.957Z,1.94
2019-01-26T03:30:36.761Z,2.01
2019-01-26T03:33:08.198Z,1.94
2019-01-26T03:35:38.731Z,2.00
2019-01-26T03:38:09.157Z,1.95
2019-01-26T03:40:39.671Z,2.02
2019-01-26T03:43:10.125Z,2.06
2019-01-26T03:45:40.549Z,2.06
2019-01-26T03:48:11.023Z,2.21
2019-01-26T03:50:41.858Z,2.12
2019-01-26T03:53:12.331Z,2.19
2019-01-26T03:55:43.127Z,2.19
2019-01-26T03:58:13.833Z,2.19
2019-01-26T04:00:44.373Z,2.12
2019-01-26T04:03:15.200Z,2.18
2019-01-26T04:05:45.626Z,2.17
2019-01-26T04:08:16.083Z,2.10
2019-01-26T04:10:46.503Z,2.09
2019-01-26T04:13:16.971Z,2.11
2019-01-26T04:15:47.401Z,2.18
2019-01-26T04:18:17.831Z,2.18
2019-01-26T04:20:48.281Z,2.29
2019-01-26T04:23:18.708Z,2.18
2019-01-26T04:25:49.170Z,2.25
2019-01-26T04:28:19.597Z,2.19
2019-01-26T04:30:50.019Z,2.20
2019-01-26T04:33:20.467Z,2.21
2019-01-26T04:35:51.442Z,2.32
2019-01-26T04:38:21.926Z,2.33
2019-01-26T04:40:52.364Z,2.37
2019-01-26T04:43:23.442Z,2.36
2019-01-26T04:45:53.899Z,2.33
2019-01-26T04:48:24.325Z,2.39
2019-01-26T04:50:54.795Z,2.48
2019-01-26T04:53:25.239Z,2.51
2019-01-26T04:55:55.664Z,2.49
2019-01-26T04:58:26.110Z,2.48
2019-01-26T05:00:56.541Z,2.46
2019-01-26T05:03:26.999Z,2.44
2019-01-26T05:05:57.419Z,2.48
2019-01-26T05:08:27.956Z,2.44
2019-01-26T05:10:58.403Z,2.38
2019-01-26T05:13:28.827Z,2.38
2019-01-26T05:15:59.303Z,2.41
2019-01-26T05:18:29.726Z,2.40
2019-01-26T05:21:00.147Z,2.46
2019-01-26T05:23:30.958Z,2.50
2019-01-26T05:26:01.380Z,2.53
2019-01-26T05:28:32.343Z,2.55
2019-01-26T05:31:02.768Z,2.60
2019-01-26T05:33:33.571Z,2.64
2019-01-26T05:36:04.653Z,2.65
2019-01-26T05:38:35.087Z,2.60
2019-01-26T05:41:05.545Z,2.57
2019-01-26T05:43:35.977Z,2.64
2019-01-26T05:46:06.729Z,2.59
2019-01-26T05:48:37.600Z,2.55
2019-01-26T05:51:08.056Z,2.57
2019-01-26T05:53:38.538Z,2.54
2019-01-26T05:56:08.970Z,2.45
2019-01-26T05:58:39.825Z,2.43
2019-01-26T06:01:10.282Z,2.39
2019-01-26T06:03:41.082Z,2.40
2019-01-26T06:06:11.894Z,2.40
2019-01-26T06:08:42.323Z,2.34
2019-01-26T06:11:13.090Z,2.32
2019-01-26T06:13:43.543Z,2.33
2019-01-26T06:16:13.967Z,2.37
2019-01-26T06:18:44.624Z,2.46
2019-01-26T06:21:15.055Z,2.46
2019-01-26T06:23:46.832Z,2.39
2019-01-26T06:26:17.408Z,2.40
2019-01-26T06:28:47.840Z,2.39
2019-01-26T06:31:18.316Z,2.42
2019-01-26T06:33:49.632Z,2.45
2019-01-26T06:36:20.066Z,2.45
2019-01-26T06:38:50.851Z,2.48
2019-01-26T06:41:21.280Z,2.55
2019-01-26T06:43:51.753Z,2.56
2019-01-26T06:46:22.185Z,2.50
2019-01-26T06:48:57.336Z,2.58
2019-01-26T06:51:28.077Z,2.62
2019-01-26T06:53:58.851Z,2.54
2019-01-26T06:56:29.305Z,2.49
2019-01-26T06:58:59.729Z,2.59
2019-01-26T07:01:30.213Z,2.53
2019-01-26T07:04:01.014Z,2.49
2019-01-26T07:06:37.331Z,2.50
2019-01-26T07:09:09.459Z,2.57
2019-01-26T07:11:39.891Z,2.59
2019-01-26T07:14:10.363Z,2.57
2019-01-26T07:16:40.792Z,2.63
2019-01-26T07:19:11.387Z,2.63
2019-01-26T07:21:41.867Z,2.60
2019-01-26T07:24:12.763Z,2.65
2019-01-26T07:26:43.192Z,2.60
2019-01-26T07:29:13.664Z,2.60
2019-01-26T07:31:44.193Z,2.58
2019-01-26T07:34:14.621Z,2.64
2019-01-26T07:36:45.087Z,2.59
2019-01-26T07:39:16.686Z,2.60
2019-01-26T07:41:47.491Z,2.70
2019-01-26T07:44:17.970Z,2.91
2019-01-26T07:46:48.746Z,3.14
2019-01-26T07:49:19.173Z,3.15
2019-01-26T07:51:49.649Z,3.28
2019-01-26T07:54:20.244Z,3.27
2019-01-26T07:56:50.632Z,3.23
2019-01-26T07:59:21.115Z,3.30
2019-01-26T08:01:51.919Z,3.33
2019-01-26T08:04:22.347Z,3.29
2019-01-26T08:06:52.823Z,3.24
2019-01-26T08:09:23.351Z,3.38
2019-01-26T08:11:53.787Z,3.43
2019-01-26T08:14:24.259Z,3.38
2019-01-26T08:16:54.691Z,3.42
2019-01-26T08:19:25.124Z,3.41
2019-01-26T08:21:55.601Z,3.50
2019-01-26T08:24:26.028Z,3.49
2019-01-26T08:26:56.465Z,3.57
2019-01-26T08:29:26.938Z,3.52
2019-01-26T08:31:57.427Z,3.52
2019-01-26T08:34:27.848Z,3.62
2019-01-26T08:36:58.326Z,3.62
2019-01-26T08:39:28.756Z,3.69
2019-01-26T08:41:59.204Z,3.72
2019-01-26T08:44:29.675Z,3.62
2019-01-26T08:47:00.109Z,3.71
2019-01-26T08:49:30.899Z,3.68
2019-01-26T08:52:01.379Z,3.74
2019-01-26T08:54:31.843Z,3.90
2019-01-26T08:57:02.277Z,3.96
2019-01-26T08:59:32.753Z,4.00
2019-01-26T09:02:25.554Z,4.04
2019-01-26T09:04:55.943Z,4.11
2019-01-26T09:07:26.527Z,4.10
2019-01-26T09:09:57.002Z,4.19
2019-01-26T09:12:28.623Z,4.29
2019-01-26T09:14:59.077Z,4.33
2019-01-26T09:17:30.227Z,4.35
2019-01-26T09:20:00.713Z,4.37
2019-01-26T09:22:31.495Z,4.42
2019-01-26T09:25:01.933Z,4.52
2019-01-26T09:27:32.403Z,4.45
2019-01-26T09:30:02.841Z,4.43
2019-01-26T09:32:33.281Z,4.54
2019-01-26T09:35:04.209Z,4.59
2019-01-26T09:37:34.646Z,4.58
2019-01-26T09:40:06.195Z,4.62
2019-01-26T09:42:36.672Z,4.67
2019-01-26T09:45:10.228Z,4.65
2019-01-26T09:47:40.668Z,4.70
2019-01-26T09:50:11.816Z,4.63
2019-01-26T09:52:42.404Z,4.64
2019-01-26T09:55:13.533Z,4.71
2019-01-26T09:57:44.011Z,4.68
2019-01-26T10:00:16.698Z,4.70
2019-01-26T10:02:47.237Z,4.72
2019-01-26T10:05:18.610Z,4.72
2019-01-26T10:07:49.367Z,4.76
2019-01-26T10:10:20.303Z,4.78
2019-01-26T10:12:50.746Z,4.86
2019-01-26T10:15:23.000Z,4.85
2019-01-26T10:17:53.633Z,4.78
2019-01-26T10:20:26.279Z,4.76
2019-01-26T10:22:56.773Z,4.77
2019-01-26T10:25:27.207Z,4.85
2019-01-26T10:27:57.744Z,4.89
2019-01-26T10:30:46.416Z,4.87
2019-01-26T10:33:16.860Z,4.93
2019-01-26T10:35:54.284Z,4.97
2019-01-26T10:38:24.723Z,5.04
2019-01-26T10:41:13.044Z,5.04
2019-01-26T10:43:47.042Z,5.03
2019-01-26T10:46:17.522Z,5.06
2019-01-26T10:48:48.053Z,5.06
2019-01-26T10:51:18.536Z,5.11
2019-01-26T10:53:48.960Z,5.14
2019-01-26T10:56:20.771Z,5.14
2019-01-26T10:58:51.261Z,5.23
2019-01-26T11:01:21.686Z,5.21
2019-01-26T11:03:52.161Z,5.13
2019-01-26T11:06:22.760Z,5.17
2019-01-26T11:08:53.208Z,5.23
2019-01-26T11:11:24.035Z,5.28
2019-01-26T11:13:54.474Z,5.25
2019-01-26T11:16:25.045Z,5.26
2019-01-26T11:18:55.834Z,5.29
2019-01-26T11:21:26.270Z,5.33
2019-01-26T11:23:57.401Z,5.35
2019-01-26T11:26:27.850Z,5.36
2019-01-26T11:28:59.207Z,5.27
2019-01-26T11:31:29.927Z,5.33
2019-01-26T11:34:00.369Z,5.25
2019-01-26T11:36:30.832Z,5.36
2019-01-26T11:39:01.273Z,5.35
2019-01-26T11:41:31.904Z,5.36
2019-01-26T11:44:02.350Z,5.35
2019-01-26T11:46:42.176Z,5.38
2019-01-26T11:49:15.265Z,5.35
2019-01-26T11:52:10.824Z,5.37
2019-01-26T11:55:00.261Z,5.42
2019-01-26T11:57:36.182Z,5.46
2019-01-26T12:00:32.319Z,5.43
2019-01-26T12:03:21.863Z,5.45
2019-01-26T12:06:02.508Z,5.55
2019-01-26T12:08:39.952Z,5.54
2019-01-26T12:11:10.388Z,5.62
2019-01-26T12:13:41.016Z,5.58
2019-01-26T12:16:11.448Z,5.56
2019-01-26T12:18:41.879Z,5.64
2019-01-26T12:21:12.345Z,5.64
2019-01-26T12:23:42.874Z,5.58
2019-01-26T12:26:13.367Z,5.64
2019-01-26T12:28:43.786Z,5.71
2019-01-26T12:31:14.558Z,5.74
2019-01-26T12:33:45.028Z,5.74
2019-01-26T12:36:15.460Z,5.69
2019-01-26T12:38:46.428Z,5.71
2019-01-26T12:41:16.858Z,5.73
2019-01-26T12:43:47.314Z,5.67
2019-01-26T12:46:17.799Z,5.70
2019-01-26T12:48:48.550Z,5.68
2019-01-26T12:51:18.983Z,5.67
2019-01-26T12:53:49.461Z,5.62
2019-01-26T12:56:19.931Z,5.66
2019-01-26T12:58:50.359Z,5.68
2019-01-26T13:01:21.110Z,5.62
2019-01-26T13:03:51.549Z,5.69
2019-01-26T13:06:21.988Z,5.65
2019-01-26T13:08:52.475Z,5.64
2019-01-26T13:11:25.171Z,5.63
2019-01-26T13:13:55.598Z,5.68
2019-01-26T13:16:26.338Z,5.69
2019-01-26T13:18:57.119Z,5.65
2019-01-26T13:21:27.659Z,5.55
2019-01-26T13:23:58.454Z,5.54
2019-01-26T13:26:28.894Z,5.51
2019-01-26T13:28:59.335Z,5.54
2019-01-26T13:31:30.161Z,5.54
2019-01-26T13:34:00.960Z,5.53
2019-01-26T13:36:31.706Z,5.53
2019-01-26T13:39:02.198Z,5.53
2019-01-26T13:41:32.623Z,5.58
2019-01-26T13:44:03.394Z,5.56
2019-01-26T13:46:33.870Z,5.52
2019-01-26T13:49:04.308Z,5.52
2019-01-26T13:51:34.727Z,5.48
2019-01-26T13:54:06.243Z,5.55
2019-01-26T13:56:36.711Z,5.56
2019-01-26T13:59:07.141Z,5.57
2019-01-26T14:01:37.615Z,5.54
2019-01-26T14:04:08.043Z,5.47
2019-01-26T14:06:38.482Z,5.46
2019-01-26T14:09:09.733Z,5.39
2019-01-26T14:11:40.163Z,5.41
2019-01-26T14:14:10.588Z,5.40
2019-01-26T14:16:41.075Z,5.39
2019-01-26T14:19:11.512Z,5.32
2019-01-26T14:21:41.931Z,5.33
2019-01-26T14:24:12.442Z,5.28
2019-01-26T14:26:49.524Z,5.20
2019-01-26T14:29:15.013Z,5.15
2019-01-26T14:31:45.552Z,5.21
2019-01-26T14:34:15.992Z,5.07
2019-01-26T14:36:46.424Z,5.09
2019-01-26T14:39:17.314Z,5.04
2019-01-26T14:41:47.749Z,4.99
2019-01-26T14:44:18.203Z,5.07
2019-01-26T14:46:48.706Z,5.05
2019-01-26T14:49:19.143Z,5.14
2019-01-26T14:51:49.592Z,5.13
2019-01-26T14:54:22.938Z,5.18
2019-01-26T14:56:53.714Z,5.14
2019-01-26T14:59:24.756Z,5.21
2019-01-26T15:01:55.242Z,5.23
2019-01-26T15:04:25.702Z,5.16
2019-01-26T15:06:57.857Z,5.18
2019-01-26T15:09:28.360Z,5.16
2019-01-26T15:11:58.795Z,5.19
2019-01-26T15:14:29.325Z,5.23
2019-01-26T15:16:59.877Z,5.20
2019-01-26T15:19:30.307Z,5.23
2019-01-26T15:22:00.808Z,5.28
2019-01-26T15:24:31.307Z,5.25
2019-01-26T15:27:01.837Z,5.19
2019-01-26T15:29:32.288Z,5.23
2019-01-26T15:32:03.041Z,5.24
2019-01-26T15:34:33.842Z,5.22
2019-01-26T15:37:04.685Z,5.23
2019-01-26T15:39:35.177Z,5.30
2019-01-26T15:42:05.607Z,5.24
2019-01-26T15:44:36.217Z,5.27
2019-01-26T15:47:06.820Z,5.26
2019-01-26T15:49:37.272Z,5.32
2019-01-26T15:52:07.688Z,5.22
2019-01-26T15:54:38.171Z,5.28
2019-01-26T15:57:08.601Z,5.21
2019-01-26T15:59:39.053Z,5.29
2019-01-26T16:02:09.527Z,5.27
2019-01-26T16:04:39.977Z,5.28
2019-01-26T16:07:10.861Z,5.30
2019-01-26T16:09:41.351Z,5.28
2019-01-26T16:12:11.804Z,5.25
2019-01-26T16:14:42.238Z,5.29
2019-01-26T16:17:12.742Z,5.27
2019-01-26T16:19:43.622Z,5.26
2019-01-26T16:22:14.077Z,5.24
2019-01-26T16:24:45.043Z,5.22
2019-01-26T16:27:15.761Z,5.22
2019-01-26T16:29:46.203Z,5.32
2019-01-26T16:32:16.710Z,5.30
2019-01-26T16:34:47.615Z,5.38
2019-01-26T16:37:20.211Z,5.42
2019-01-26T16:39:52.838Z,5.35
2019-01-26T16:42:23.294Z,5.40
2019-01-26T16:44:54.068Z,5.35
2019-01-26T16:47:24.556Z,5.32
2019-01-26T16:49:55.005Z,5.29
2019-01-26T16:52:25.457Z,5.28
2019-01-26T16:54:55.977Z,5.27
2019-01-26T16:57:26.429Z,5.36
2019-01-26T16:59:57.280Z,5.26
2019-01-26T17:02:27.762Z,5.29
2019-01-26T17:04:58.200Z,5.36
2019-01-26T17:07:28.633Z,5.40
2019-01-26T17:09:59.449Z,5.32
2019-01-26T17:12:29.919Z,5.35
2019-01-26T17:15:00.469Z,5.31
2019-01-26T17:17:31.390Z,5.29
2019-01-26T17:20:02.195Z,5.36
2019-01-26T17:22:32.894Z,5.38
2019-01-26T17:25:03.400Z,5.46
2019-01-26T17:27:33.842Z,5.45
2019-01-26T17:30:04.986Z,5.48
2019-01-26T17:32:35.481Z,5.53
2019-01-26T17:35:06.173Z,5.47
2019-01-26T17:37:36.609Z,5.48
2019-01-26T17:40:09.677Z,5.48
2019-01-26T17:42:40.136Z,5.52
2019-01-26T17:45:10.940Z,5.46
2019-01-26T17:47:41.424Z,5.54
2019-01-26T17:50:14.909Z,5.56
2019-01-26T17:52:46.033Z,5.59
2019-01-26T17:55:17.109Z,5.49
2019-01-26T17:57:47.737Z,5.50
2019-01-26T18:00:26.028Z,5.47
2019-01-26T18:02:56.468Z,5.47
2019-01-26T18:05:26.930Z,5.54
2019-01-26T18:07:57.397Z,5.46
2019-01-26T18:10:27.958Z,5.35
2019-01-26T18:12:58.818Z,5.32
2019-01-26T18:15:29.297Z,5.27
2019-01-26T18:17:59.729Z,5.21
2019-01-26T18:20:30.622Z,5.22
2019-01-26T18:23:02.339Z,5.15
2019-01-26T18:25:35.700Z,5.08
2019-01-26T18:28:06.301Z,5.07
2019-01-26T18:30:48.036Z,5.18
2019-01-26T18:33:18.512Z,5.32
2019-01-26T18:35:48.977Z,5.29
2019-01-26T18:38:19.436Z,5.34
2019-01-26T18:40:50.739Z,5.41
2019-01-26T18:43:21.182Z,5.45
2019-01-26T18:45:51.603Z,5.37
2019-01-26T18:48:22.098Z,5.52
2019-01-26T18:50:56.376Z,5.38
2019-01-26T18:53:27.045Z,5.28
2019-01-26T18:55:57.424Z,5.28
2019-01-26T18:58:27.869Z,5.31
2019-01-26T19:00:58.376Z,5.22
2019-01-26T19:04:00.050Z,5.18
2019-01-26T19:06:32.610Z,5.24
2019-01-26T19:09:04.642Z,5.30
2019-01-26T19:11:35.427Z,5.41
2019-01-26T19:14:06.269Z,5.37
2019-01-26T19:16:36.741Z,5.43
2019-01-26T19:19:07.239Z,5.48
2019-01-26T19:21:39.161Z,5.39
2019-01-26T19:24:10.241Z,5.40
2019-01-26T19:26:40.696Z,5.41
2019-01-26T19:29:11.187Z,5.29
2019-01-26T19:31:41.608Z,5.21
2019-01-26T19:34:12.107Z,5.23
2019-01-26T19:36:44.036Z,5.14
2019-01-26T19:39:14.469Z,5.15
2019-01-26T19:41:44.900Z,5.18
2019-01-26T19:44:15.395Z,5.10
2019-01-26T19:46:45.833Z,5.08
2019-01-26T19:49:17.275Z,5.08
2019-01-26T19:51:48.188Z,4.99
2019-01-26T19:54:18.673Z,5.03
2019-01-26T19:56:49.197Z,4.97
2019-01-26T19:59:19.685Z,4.89
2019-01-26T20:01:50.490Z,4.81
2019-01-26T20:04:21.721Z,4.92
2019-01-26T20:06:54.907Z,4.86
2019-01-26T20:09:25.356Z,5.02
2019-01-26T20:11:55.801Z,4.97
2019-01-26T20:14:26.320Z,4.98
2019-01-26T20:16:56.762Z,4.89
2019-01-26T20:19:28.452Z,4.77
2019-01-26T20:21:59.437Z,4.76
2019-01-26T20:24:29.884Z,4.71
2019-01-26T20:27:00.326Z,4.58
2019-01-26T20:29:30.833Z,4.63
2019-01-26T20:32:01.269Z,4.57
2019-01-26T20:34:31.909Z,4.52
2019-01-26T20:37:03.120Z,4.43
2019-01-26T20:39:33.585Z,4.41
2019-01-26T20:42:04.143Z,4.40
2019-01-26T20:44:35.108Z,4.42
2019-01-26T20:47:05.691Z,4.34
2019-01-26T20:49:36.175Z,4.33
2019-01-26T20:52:07.690Z,4.31
2019-01-26T20:54:38.524Z,4.30
2019-01-26T20:57:11.242Z,4.30
2019-01-26T20:59:41.745Z,4.30
2019-01-26T21:02:12.520Z,4.28
2019-01-26T21:04:44.043Z,4.32
2019-01-26T21:07:20.707Z,4.25
2019-01-26T21:09:51.214Z,4.20
2019-01-26T21:12:21.653Z,4.17
2019-01-26T21:14:52.432Z,4.20
2019-01-26T21:17:23.527Z,4.20
2019-01-26T21:19:54.336Z,4.33
2019-01-26T21:22:24.945Z,4.29
2019-01-26T21:24:55.837Z,4.27
2019-01-26T21:27:26.280Z,4.27
2019-01-26T21:29:58.133Z,4.23
2019-01-26T21:32:29.644Z,4.19
2019-01-26T21:35:00.181Z,4.16
2019-01-26T21:37:30.769Z,4.17
2019-01-26T21:40:01.232Z,4.14
2019-01-26T21:42:32.352Z,4.14
2019-01-26T21:45:03.177Z,4.25
2019-01-26T21:47:34.135Z,4.21
2019-01-26T21:50:05.907Z,4.11
2019-01-26T21:52:40.928Z,4.10
2019-01-26T21:55:09.829Z,4.14
2019-01-26T21:57:40.337Z,4.12
2019-01-26T22:00:17.356Z,4.11
2019-01-26T22:02:47.896Z,4.07
2019-01-26T22:05:18.355Z,4.12
2019-01-26T22:07:50.150Z,4.07
2019-01-26T22:10:21.942Z,4.11
2019-01-26T22:12:52.761Z,4.17
2019-01-26T22:15:24.044Z,4.14
2019-01-26T22:17:54.855Z,4.15
2019-01-26T22:20:27.250Z,4.11
2019-01-26T22:22:58.067Z,4.16
2019-01-26T22:25:28.511Z,4.16
2019-01-26T22:27:59.123Z,4.15
2019-01-26T22:30:31.729Z,4.15
2019-01-26T22:33:02.476Z,4.20
2019-01-26T22:35:33.250Z,4.20
2019-01-26T22:38:03.735Z,4.15
2019-01-26T22:40:37.883Z,4.08
2019-01-26T22:43:08.783Z,4.09
2019-01-26T22:45:39.316Z,4.11
2019-01-26T22:48:10.208Z,4.10
2019-01-26T22:50:40.839Z,4.04
2019-01-26T22:53:11.681Z,4.14
2019-01-26T22:55:42.120Z,4.11
2019-01-26T22:58:12.604Z,4.12
2019-01-26T23:01:14.276Z,4.12
2019-01-26T23:04:19.627Z,4.12
2019-01-26T23:07:19.167Z,4.06
2019-01-26T23:10:13.786Z,4.08
2019-01-26T23:12:54.451Z,4.12
2019-01-26T23:16:27.140Z,4.10
2019-01-26T23:19:26.532Z,4.05
2019-01-26T23:23:08.157Z,4.08
2019-01-26T23:25:53.515Z,4.08
2019-01-26T23:29:00.744Z,4.05
2019-01-26T23:31:31.170Z,4.00
2019-01-26T23:34:01.603Z,4.01
2019-01-26T23:36:32.074Z,4.06
2019-01-26T23:39:02.770Z,4.11
2019-01-26T23:41:34.092Z,4.00
2019-01-26T23:44:04.831Z,4.00
2019-01-26T23:46:35.251Z,4.00
2019-01-26T23:49:06.023Z,4.07
2019-01-26T23:51:37.126Z,4.09
2019-01-26T23:54:07.654Z,4.13
2019-01-26T23:56:38.476Z,4.14
2019-01-26T23:59:08.918Z,4.16
